sensor_id;sensor_type;location;lat;lon;timestamp;P1;durP1;ratioP1;P2;durP2;ratioP2
22480;SDS011;11407;56.964;-2.212;2023-08-06T00:00:16;3.13;;;2.17;;
22480;SDS011;11407;56.964;-2.212;2023-08-06T00:02:41;3.50;;;2.17;;
22480;SDS011;11407;56.964;-2.212;2023-08-06T00:05:07;3.13;;;1.83;;
22480;SDS011;11407;56.964;-2.212;2023-08-06T00:07:32;4.13;;;2.30;;
22480;SDS011;11407;56.964;-2.212;2023-08-06T00:09:57;3.17;;;2.10;;
22480;SDS011;11407;56.964;-2.212;2023-08-06T00:12:22;6.77;;;2.30;;
22480;SDS011;11407;56.964;-2.212;2023-08-06T00:14:51;3.87;;;1.83;;
22480;SDS011;11407;56.964;-2.212;2023-08-06T00:17:17;3.13;;;2.30;;
22480;SDS011;11407;56.964;-2.212;2023-08-06T00:19:42;2.60;;;1.73;;
22480;SDS011;11407;56.964;-2.212;2023-08-06T00:22:08;3.50;;;2.20;;
22480;SDS011;11407;56.964;-2.212;2023-08-06T00:24:33;3.13;;;2.00;;
22480;SDS011;11407;56.964;-2.212;2023-08-06T00:26:59;2.70;;;2.00;;
22480;SDS011;11407;56.964;-2.212;2023-08-06T00:29:24;4.47;;;3.10;;
22480;SDS011;11407;56.964;-2.212;2023-08-06T00:31:49;3.73;;;2.27;;
22480;SDS011;11407;56.964;-2.212;2023-08-06T00:34:15;2.43;;;1.90;;
22480;SDS011;11407;56.964;-2.212;2023-08-06T00:36:40;2.67;;;1.97;;
22480;SDS011;11407;56.964;-2.212;2023-08-06T00:39:05;2.40;;;2.00;;
22480;SDS011;11407;56.964;-2.212;2023-08-06T00:41:32;3.03;;;2.27;;
22480;SDS011;11407;56.964;-2.212;2023-08-06T00:43:57;3.90;;;2.47;;
22480;SDS011;11407;56.964;-2.212;2023-08-06T00:46:22;4.13;;;2.23;;
22480;SDS011;11407;56.964;-2.212;2023-08-06T00:48:47;2.80;;;2.07;;
22480;SDS011;11407;56.964;-2.212;2023-08-06T00:51:13;4.03;;;2.30;;
22480;SDS011;11407;56.964;-2.212;2023-08-06T00:53:38;5.00;;;2.30;;
22480;SDS011;11407;56.964;-2.212;2023-08-06T00:56:04;5.10;;;2.20;;
22480;SDS011;11407;56.964;-2.212;2023-08-06T00:58:30;5.53;;;2.40;;
22480;SDS011;11407;56.964;-2.212;2023-08-06T01:00:55;3.47;;;2.00;;
22480;SDS011;11407;56.964;-2.212;2023-08-06T01:03:20;4.40;;;2.47;;
22480;SDS011;11407;56.964;-2.212;2023-08-06T01:05:46;2.90;;;2.07;;
22480;SDS011;11407;56.964;-2.212;2023-08-06T01:13:48;4.07;;;2.30;;
22480;SDS011;11407;56.964;-2.212;2023-08-06T01:16:17;3.13;;;2.00;;
22480;SDS011;11407;56.964;-2.212;2023-08-06T01:18:42;2.53;;;2.20;;
22480;SDS011;11407;56.964;-2.212;2023-08-06T01:21:11;3.87;;;2.00;;
22480;SDS011;11407;56.964;-2.212;2023-08-06T01:23:36;3.70;;;2.17;;
22480;SDS011;11407;56.964;-2.212;2023-08-06T01:26:13;4.40;;;1.83;;
22480;SDS011;11407;56.964;-2.212;2023-08-06T01:31:07;3.70;;;2.53;;
22480;SDS011;11407;56.964;-2.212;2023-08-06T01:33:35;4.00;;;2.10;;
22480;SDS011;11407;56.964;-2.212;2023-08-06T01:36:03;4.00;;;2.00;;
22480;SDS011;11407;56.964;-2.212;2023-08-06T01:38:29;3.40;;;2.00;;
22480;SDS011;11407;56.964;-2.212;2023-08-06T01:40:54;2.07;;;1.70;;
22480;SDS011;11407;56.964;-2.212;2023-08-06T01:43:19;4.53;;;2.13;;
22480;SDS011;11407;56.964;-2.212;2023-08-06T01:45:44;2.67;;;1.70;;
22480;SDS011;11407;56.964;-2.212;2023-08-06T01:48:10;2.77;;;2.17;;
22480;SDS011;11407;56.964;-2.212;2023-08-06T01:50:35;3.03;;;2.03;;
22480;SDS011;11407;56.964;-2.212;2023-08-06T01:53:00;2.63;;;1.87;;
22480;SDS011;11407;56.964;-2.212;2023-08-06T01:55:25;4.17;;;1.83;;
22480;SDS011;11407;56.964;-2.212;2023-08-06T01:57:51;4.40;;;2.03;;
22480;SDS011;11407;56.964;-2.212;2023-08-06T02:00:16;2.53;;;1.83;;
22480;SDS011;11407;56.964;-2.212;2023-08-06T02:02:41;3.90;;;2.23;;
22480;SDS011;11407;56.964;-2.212;2023-08-06T02:05:06;4.00;;;2.30;;
22480;SDS011;11407;56.964;-2.212;2023-08-06T02:07:32;2.53;;;1.80;;
22480;SDS011;11407;56.964;-2.212;2023-08-06T02:09:57;2.70;;;1.90;;
22480;SDS011;11407;56.964;-2.212;2023-08-06T02:12:22;2.13;;;1.93;;
22480;SDS011;11407;56.964;-2.212;2023-08-06T02:14:47;3.03;;;2.00;;
22480;SDS011;11407;56.964;-2.212;2023-08-06T02:17:13;2.90;;;1.90;;
22480;SDS011;11407;56.964;-2.212;2023-08-06T02:19:38;3.07;;;2.13;;
22480;SDS011;11407;56.964;-2.212;2023-08-06T02:22:04;3.60;;;2.30;;
22480;SDS011;11407;56.964;-2.212;2023-08-06T02:24:29;3.53;;;1.90;;
22480;SDS011;11407;56.964;-2.212;2023-08-06T02:26:54;3.73;;;2.10;;
22480;SDS011;11407;56.964;-2.212;2023-08-06T02:29:21;3.87;;;2.10;;
22480;SDS011;11407;56.964;-2.212;2023-08-06T02:31:46;3.57;;;2.20;;
22480;SDS011;11407;56.964;-2.212;2023-08-06T02:34:11;3.77;;;1.70;;
22480;SDS011;11407;56.964;-2.212;2023-08-06T02:36:37;2.23;;;2.00;;
22480;SDS011;11407;56.964;-2.212;2023-08-06T02:39:02;4.00;;;2.00;;
22480;SDS011;11407;56.964;-2.212;2023-08-06T02:41:27;2.93;;;1.90;;
22480;SDS011;11407;56.964;-2.212;2023-08-06T02:43:52;2.53;;;2.00;;
22480;SDS011;11407;56.964;-2.212;2023-08-06T02:46:18;3.40;;;1.90;;
22480;SDS011;11407;56.964;-2.212;2023-08-06T02:48:43;2.97;;;1.87;;
22480;SDS011;11407;56.964;-2.212;2023-08-06T02:51:08;3.37;;;2.10;;
22480;SDS011;11407;56.964;-2.212;2023-08-06T02:53:33;2.87;;;1.90;;
22480;SDS011;11407;56.964;-2.212;2023-08-06T02:55:59;3.30;;;2.10;;
22480;SDS011;11407;56.964;-2.212;2023-08-06T02:58:24;3.60;;;1.57;;
22480;SDS011;11407;56.964;-2.212;2023-08-06T03:01:02;2.77;;;1.87;;
22480;SDS011;11407;56.964;-2.212;2023-08-06T03:03:28;2.50;;;1.90;;
22480;SDS011;11407;56.964;-2.212;2023-08-06T03:05:54;4.40;;;2.13;;
22480;SDS011;11407;56.964;-2.212;2023-08-06T03:08:19;3.53;;;1.90;;
22480;SDS011;11407;56.964;-2.212;2023-08-06T03:10:47;4.53;;;2.43;;
22480;SDS011;11407;56.964;-2.212;2023-08-06T03:13:12;2.83;;;1.80;;
22480;SDS011;11407;56.964;-2.212;2023-08-06T03:15:38;3.33;;;1.77;;
22480;SDS011;11407;56.964;-2.212;2023-08-06T03:18:03;2.13;;;1.80;;
22480;SDS011;11407;56.964;-2.212;2023-08-06T03:20:28;2.40;;;1.90;;
22480;SDS011;11407;56.964;-2.212;2023-08-06T03:22:53;4.83;;;1.80;;
22480;SDS011;11407;56.964;-2.212;2023-08-06T03:25:19;3.83;;;2.17;;
22480;SDS011;11407;56.964;-2.212;2023-08-06T03:27:44;2.97;;;1.93;;
22480;SDS011;11407;56.964;-2.212;2023-08-06T03:30:09;6.17;;;2.00;;
22480;SDS011;11407;56.964;-2.212;2023-08-06T03:32:35;2.83;;;1.73;;
22480;SDS011;11407;56.964;-2.212;2023-08-06T03:35:00;4.13;;;1.90;;
22480;SDS011;11407;56.964;-2.212;2023-08-06T03:37:25;2.57;;;1.73;;
22480;SDS011;11407;56.964;-2.212;2023-08-06T03:39:50;2.73;;;1.87;;
22480;SDS011;11407;56.964;-2.212;2023-08-06T03:42:16;2.20;;;1.63;;
22480;SDS011;11407;56.964;-2.212;2023-08-06T03:44:41;2.47;;;1.80;;
22480;SDS011;11407;56.964;-2.212;2023-08-06T03:47:06;2.30;;;2.00;;
22480;SDS011;11407;56.964;-2.212;2023-08-06T03:49:31;2.50;;;1.90;;
22480;SDS011;11407;56.964;-2.212;2023-08-06T03:51:56;3.43;;;1.70;;
22480;SDS011;11407;56.964;-2.212;2023-08-06T03:54:22;2.43;;;1.80;;
22480;SDS011;11407;56.964;-2.212;2023-08-06T03:56:47;2.90;;;1.90;;
22480;SDS011;11407;56.964;-2.212;2023-08-06T03:59:12;2.87;;;1.67;;
22480;SDS011;11407;56.964;-2.212;2023-08-06T04:01:37;2.43;;;1.70;;
22480;SDS011;11407;56.964;-2.212;2023-08-06T04:04:03;2.53;;;1.70;;
22480;SDS011;11407;56.964;-2.212;2023-08-06T04:06:28;2.37;;;1.80;;
22480;SDS011;11407;56.964;-2.212;2023-08-06T04:08:53;2.37;;;1.90;;
22480;SDS011;11407;56.964;-2.212;2023-08-06T04:11:18;4.03;;;1.70;;
22480;SDS011;11407;56.964;-2.212;2023-08-06T04:13:44;3.57;;;1.67;;
22480;SDS011;11407;56.964;-2.212;2023-08-06T04:16:09;3.47;;;2.07;;
22480;SDS011;11407;56.964;-2.212;2023-08-06T04:18:34;2.57;;;1.87;;
22480;SDS011;11407;56.964;-2.212;2023-08-06T04:21:01;2.17;;;1.80;;
22480;SDS011;11407;56.964;-2.212;2023-08-06T04:23:26;3.27;;;1.90;;
22480;SDS011;11407;56.964;-2.212;2023-08-06T04:25:51;3.20;;;1.87;;
22480;SDS011;11407;56.964;-2.212;2023-08-06T04:28:16;2.60;;;1.80;;
22480;SDS011;11407;56.964;-2.212;2023-08-06T04:30:42;4.93;;;1.93;;
22480;SDS011;11407;56.964;-2.212;2023-08-06T04:33:07;3.33;;;1.63;;
22480;SDS011;11407;56.964;-2.212;2023-08-06T04:35:32;1.80;;;1.63;;
22480;SDS011;11407;56.964;-2.212;2023-08-06T04:37:57;2.53;;;1.83;;
22480;SDS011;11407;56.964;-2.212;2023-08-06T04:40:23;2.00;;;1.63;;
22480;SDS011;11407;56.964;-2.212;2023-08-06T04:42:48;1.97;;;1.70;;
22480;SDS011;11407;56.964;-2.212;2023-08-06T04:45:13;2.47;;;1.97;;
22480;SDS011;11407;56.964;-2.212;2023-08-06T04:47:39;2.67;;;1.63;;
22480;SDS011;11407;56.964;-2.212;2023-08-06T04:50:04;3.63;;;1.80;;
22480;SDS011;11407;56.964;-2.212;2023-08-06T04:52:29;3.03;;;1.63;;
22480;SDS011;11407;56.964;-2.212;2023-08-06T04:54:57;2.77;;;1.70;;
22480;SDS011;11407;56.964;-2.212;2023-08-06T04:57:22;2.83;;;1.80;;
22480;SDS011;11407;56.964;-2.212;2023-08-06T04:59:47;2.37;;;2.00;;
22480;SDS011;11407;56.964;-2.212;2023-08-06T05:02:12;3.90;;;1.90;;
22480;SDS011;11407;56.964;-2.212;2023-08-06T05:04:38;3.23;;;1.60;;
22480;SDS011;11407;56.964;-2.212;2023-08-06T05:07:03;1.83;;;1.67;;
22480;SDS011;11407;56.964;-2.212;2023-08-06T05:09:29;2.23;;;1.60;;
22480;SDS011;11407;56.964;-2.212;2023-08-06T05:11:54;2.53;;;1.70;;
22480;SDS011;11407;56.964;-2.212;2023-08-06T05:14:19;1.90;;;1.70;;
22480;SDS011;11407;56.964;-2.212;2023-08-06T05:16:44;1.93;;;1.67;;
22480;SDS011;11407;56.964;-2.212;2023-08-06T05:19:10;2.57;;;1.70;;
22480;SDS011;11407;56.964;-2.212;2023-08-06T05:21:35;2.90;;;1.80;;
22480;SDS011;11407;56.964;-2.212;2023-08-06T05:24:00;2.83;;;1.60;;
22480;SDS011;11407;56.964;-2.212;2023-08-06T05:26:25;2.50;;;1.67;;
22480;SDS011;11407;56.964;-2.212;2023-08-06T05:28:51;5.50;;;2.10;;
22480;SDS011;11407;56.964;-2.212;2023-08-06T05:31:16;3.00;;;1.60;;
22480;SDS011;11407;56.964;-2.212;2023-08-06T05:33:41;2.43;;;1.87;;
22480;SDS011;11407;56.964;-2.212;2023-08-06T05:36:06;1.73;;;1.57;;
22480;SDS011;11407;56.964;-2.212;2023-08-06T05:38:32;1.93;;;1.70;;
22480;SDS011;11407;56.964;-2.212;2023-08-06T05:40:57;2.40;;;1.80;;
22480;SDS011;11407;56.964;-2.212;2023-08-06T05:43:22;2.97;;;1.73;;
22480;SDS011;11407;56.964;-2.212;2023-08-06T05:45:50;2.10;;;1.73;;
22480;SDS011;11407;56.964;-2.212;2023-08-06T05:48:16;2.90;;;1.77;;
22480;SDS011;11407;56.964;-2.212;2023-08-06T05:50:41;2.47;;;1.60;;
22480;SDS011;11407;56.964;-2.212;2023-08-06T05:53:07;1.83;;;1.33;;
22480;SDS011;11407;56.964;-2.212;2023-08-06T05:55:32;1.83;;;1.73;;
22480;SDS011;11407;56.964;-2.212;2023-08-06T05:57:58;2.03;;;1.70;;
22480;SDS011;11407;56.964;-2.212;2023-08-06T06:00:23;2.47;;;1.67;;
22480;SDS011;11407;56.964;-2.212;2023-08-06T06:02:48;3.10;;;1.80;;
22480;SDS011;11407;56.964;-2.212;2023-08-06T06:05:14;4.20;;;1.83;;
22480;SDS011;11407;56.964;-2.212;2023-08-06T06:07:39;2.90;;;1.70;;
22480;SDS011;11407;56.964;-2.212;2023-08-06T06:10:04;2.57;;;1.70;;
22480;SDS011;11407;56.964;-2.212;2023-08-06T06:12:30;1.90;;;1.60;;
22480;SDS011;11407;56.964;-2.212;2023-08-06T06:14:55;3.20;;;1.60;;
22480;SDS011;11407;56.964;-2.212;2023-08-06T06:17:21;1.67;;;1.40;;
22480;SDS011;11407;56.964;-2.212;2023-08-06T06:19:46;3.43;;;1.97;;
22480;SDS011;11407;56.964;-2.212;2023-08-06T06:22:12;2.33;;;2.00;;
22480;SDS011;11407;56.964;-2.212;2023-08-06T06:24:37;3.80;;;2.03;;
22480;SDS011;11407;56.964;-2.212;2023-08-06T06:27:02;2.20;;;1.70;;
22480;SDS011;11407;56.964;-2.212;2023-08-06T06:29:28;2.33;;;1.73;;
22480;SDS011;11407;56.964;-2.212;2023-08-06T06:31:53;2.87;;;1.90;;
22480;SDS011;11407;56.964;-2.212;2023-08-06T06:34:18;2.07;;;1.83;;
22480;SDS011;11407;56.964;-2.212;2023-08-06T06:36:43;2.53;;;2.00;;
22480;SDS011;11407;56.964;-2.212;2023-08-06T06:39:09;3.87;;;1.73;;
22480;SDS011;11407;56.964;-2.212;2023-08-06T06:41:34;2.37;;;1.73;;
22480;SDS011;11407;56.964;-2.212;2023-08-06T06:43:59;2.23;;;1.80;;
22480;SDS011;11407;56.964;-2.212;2023-08-06T06:46:24;2.37;;;1.80;;
22480;SDS011;11407;56.964;-2.212;2023-08-06T06:48:50;2.47;;;1.70;;
22480;SDS011;11407;56.964;-2.212;2023-08-06T06:51:15;3.10;;;2.03;;
22480;SDS011;11407;56.964;-2.212;2023-08-06T06:53:40;2.30;;;1.50;;
22480;SDS011;11407;56.964;-2.212;2023-08-06T06:56:05;2.17;;;1.90;;
22480;SDS011;11407;56.964;-2.212;2023-08-06T06:58:31;3.03;;;2.00;;
22480;SDS011;11407;56.964;-2.212;2023-08-06T07:00:56;2.33;;;1.93;;
22480;SDS011;11407;56.964;-2.212;2023-08-06T07:03:21;5.00;;;2.17;;
22480;SDS011;11407;56.964;-2.212;2023-08-06T07:05:47;2.47;;;1.90;;
22480;SDS011;11407;56.964;-2.212;2023-08-06T07:08:12;3.20;;;2.30;;
22480;SDS011;11407;56.964;-2.212;2023-08-06T07:10:38;4.17;;;2.30;;
22480;SDS011;11407;56.964;-2.212;2023-08-06T07:13:03;2.87;;;2.10;;
22480;SDS011;11407;56.964;-2.212;2023-08-06T07:15:28;3.27;;;1.87;;
22480;SDS011;11407;56.964;-2.212;2023-08-06T07:17:54;2.77;;;1.90;;
22480;SDS011;11407;56.964;-2.212;2023-08-06T07:20:19;2.80;;;1.80;;
22480;SDS011;11407;56.964;-2.212;2023-08-06T07:22:44;2.43;;;1.70;;
22480;SDS011;11407;56.964;-2.212;2023-08-06T07:25:10;2.47;;;1.73;;
22480;SDS011;11407;56.964;-2.212;2023-08-06T07:27:35;2.03;;;1.77;;
22480;SDS011;11407;56.964;-2.212;2023-08-06T07:30:00;1.73;;;1.60;;
22480;SDS011;11407;56.964;-2.212;2023-08-06T07:32:26;3.13;;;1.63;;
22480;SDS011;11407;56.964;-2.212;2023-08-06T07:34:52;2.40;;;1.70;;
22480;SDS011;11407;56.964;-2.212;2023-08-06T07:37:21;3.97;;;1.50;;
22480;SDS011;11407;56.964;-2.212;2023-08-06T07:39:47;2.57;;;1.60;;
22480;SDS011;11407;56.964;-2.212;2023-08-06T07:42:12;1.77;;;1.57;;
22480;SDS011;11407;56.964;-2.212;2023-08-06T07:44:37;2.33;;;1.60;;
22480;SDS011;11407;56.964;-2.212;2023-08-06T07:47:03;1.60;;;1.40;;
22480;SDS011;11407;56.964;-2.212;2023-08-06T07:49:28;3.00;;;1.67;;
22480;SDS011;11407;56.964;-2.212;2023-08-06T07:51:53;1.90;;;1.70;;
22480;SDS011;11407;56.964;-2.212;2023-08-06T07:54:18;1.87;;;1.60;;
22480;SDS011;11407;56.964;-2.212;2023-08-06T07:56:44;1.87;;;1.67;;
22480;SDS011;11407;56.964;-2.212;2023-08-06T07:59:09;4.63;;;2.00;;
22480;SDS011;11407;56.964;-2.212;2023-08-06T08:01:35;3.37;;;1.80;;
22480;SDS011;11407;56.964;-2.212;2023-08-06T08:04:00;2.63;;;1.97;;
22480;SDS011;11407;56.964;-2.212;2023-08-06T08:06:25;1.97;;;1.67;;
22480;SDS011;11407;56.964;-2.212;2023-08-06T08:08:50;2.20;;;1.70;;
22480;SDS011;11407;56.964;-2.212;2023-08-06T08:11:17;2.40;;;2.00;;
22480;SDS011;11407;56.964;-2.212;2023-08-06T08:13:42;2.20;;;2.00;;
22480;SDS011;11407;56.964;-2.212;2023-08-06T08:16:08;2.97;;;1.90;;
22480;SDS011;11407;56.964;-2.212;2023-08-06T08:18:33;2.40;;;1.90;;
22480;SDS011;11407;56.964;-2.212;2023-08-06T08:20:58;3.10;;;1.97;;
22480;SDS011;11407;56.964;-2.212;2023-08-06T08:23:24;2.10;;;1.80;;
22480;SDS011;11407;56.964;-2.212;2023-08-06T08:25:49;2.13;;;1.77;;
22480;SDS011;11407;56.964;-2.212;2023-08-06T08:28:14;2.93;;;2.10;;
22480;SDS011;11407;56.964;-2.212;2023-08-06T08:30:41;4.07;;;2.00;;
22480;SDS011;11407;56.964;-2.212;2023-08-06T08:33:06;2.73;;;1.97;;
22480;SDS011;11407;56.964;-2.212;2023-08-06T08:35:32;2.00;;;1.80;;
22480;SDS011;11407;56.964;-2.212;2023-08-06T08:37:58;3.73;;;1.93;;
22480;SDS011;11407;56.964;-2.212;2023-08-06T08:40:23;2.43;;;2.17;;
22480;SDS011;11407;56.964;-2.212;2023-08-06T08:42:52;3.87;;;1.90;;
22480;SDS011;11407;56.964;-2.212;2023-08-06T08:45:17;2.50;;;2.00;;
22480;SDS011;11407;56.964;-2.212;2023-08-06T08:47:45;1.90;;;1.67;;
22480;SDS011;11407;56.964;-2.212;2023-08-06T08:50:12;2.60;;;1.70;;
22480;SDS011;11407;56.964;-2.212;2023-08-06T08:52:39;2.30;;;1.93;;
22480;SDS011;11407;56.964;-2.212;2023-08-06T08:55:07;2.70;;;1.60;;
22480;SDS011;11407;56.964;-2.212;2023-08-06T08:57:33;2.17;;;1.80;;
22480;SDS011;11407;56.964;-2.212;2023-08-06T08:59:58;2.20;;;1.70;;
22480;SDS011;11407;56.964;-2.212;2023-08-06T09:02:23;2.27;;;2.07;;
22480;SDS011;11407;56.964;-2.212;2023-08-06T09:04:50;3.43;;;1.97;;
22480;SDS011;11407;56.964;-2.212;2023-08-06T09:07:17;3.20;;;1.87;;
22480;SDS011;11407;56.964;-2.212;2023-08-06T09:09:43;2.40;;;1.73;;
22480;SDS011;11407;56.964;-2.212;2023-08-06T09:12:12;2.53;;;1.90;;
22480;SDS011;11407;56.964;-2.212;2023-08-06T09:14:38;2.20;;;1.87;;
22480;SDS011;11407;56.964;-2.212;2023-08-06T09:17:04;3.00;;;1.60;;
22480;SDS011;11407;56.964;-2.212;2023-08-06T09:19:30;2.47;;;1.90;;
22480;SDS011;11407;56.964;-2.212;2023-08-06T09:21:56;2.40;;;1.50;;
22480;SDS011;11407;56.964;-2.212;2023-08-06T09:24:22;2.20;;;1.57;;
22480;SDS011;11407;56.964;-2.212;2023-08-06T09:37:02;2.47;;;1.80;;
22480;SDS011;11407;56.964;-2.212;2023-08-06T09:39:29;1.70;;;1.60;;
22480;SDS011;11407;56.964;-2.212;2023-08-06T09:41:58;2.50;;;1.87;;
22480;SDS011;11407;56.964;-2.212;2023-08-06T09:44:23;1.63;;;1.53;;
22480;SDS011;11407;56.964;-2.212;2023-08-06T09:46:54;1.70;;;1.60;;
22480;SDS011;11407;56.964;-2.212;2023-08-06T09:49:21;1.70;;;1.60;;
22480;SDS011;11407;56.964;-2.212;2023-08-06T09:51:47;3.00;;;1.80;;
22480;SDS011;11407;56.964;-2.212;2023-08-06T09:54:16;2.33;;;1.73;;
22480;SDS011;11407;56.964;-2.212;2023-08-06T09:56:41;2.50;;;1.30;;
22480;SDS011;11407;56.964;-2.212;2023-08-06T09:59:07;3.10;;;1.80;;
22480;SDS011;11407;56.964;-2.212;2023-08-06T10:01:35;1.83;;;1.67;;
22480;SDS011;11407;56.964;-2.212;2023-08-06T10:04:04;4.47;;;1.90;;
22480;SDS011;11407;56.964;-2.212;2023-08-06T10:06:31;2.00;;;1.57;;
22480;SDS011;11407;56.964;-2.212;2023-08-06T10:08:57;1.80;;;1.60;;
22480;SDS011;11407;56.964;-2.212;2023-08-06T10:11:23;2.40;;;1.50;;
22480;SDS011;11407;56.964;-2.212;2023-08-06T10:13:50;2.00;;;1.70;;
22480;SDS011;11407;56.964;-2.212;2023-08-06T10:16:18;2.00;;;1.50;;
22480;SDS011;11407;56.964;-2.212;2023-08-06T10:18:44;1.90;;;1.73;;
22480;SDS011;11407;56.964;-2.212;2023-08-06T10:21:10;1.80;;;1.67;;
22480;SDS011;11407;56.964;-2.212;2023-08-06T10:23:39;2.47;;;1.80;;
22480;SDS011;11407;56.964;-2.212;2023-08-06T10:26:05;3.27;;;2.10;;
22480;SDS011;11407;56.964;-2.212;2023-08-06T10:28:34;2.93;;;2.10;;
22480;SDS011;11407;56.964;-2.212;2023-08-06T10:31:01;4.23;;;2.40;;
22480;SDS011;11407;56.964;-2.212;2023-08-06T10:33:26;3.90;;;2.33;;
22480;SDS011;11407;56.964;-2.212;2023-08-06T10:36:04;3.87;;;2.20;;
22480;SDS011;11407;56.964;-2.212;2023-08-06T10:38:34;2.13;;;1.93;;
22480;SDS011;11407;56.964;-2.212;2023-08-06T10:41:02;2.30;;;2.10;;
22480;SDS011;11407;56.964;-2.212;2023-08-06T10:43:36;3.00;;;1.70;;
22480;SDS011;11407;56.964;-2.212;2023-08-06T10:46:04;2.40;;;1.80;;
22480;SDS011;11407;56.964;-2.212;2023-08-06T10:51:02;4.97;;;2.20;;
22480;SDS011;11407;56.964;-2.212;2023-08-06T10:53:27;2.87;;;2.03;;
22480;SDS011;11407;56.964;-2.212;2023-08-06T10:55:52;5.80;;;2.60;;
22480;SDS011;11407;56.964;-2.212;2023-08-06T10:58:18;3.20;;;2.43;;
22480;SDS011;11407;56.964;-2.212;2023-08-06T11:00:43;3.63;;;2.30;;
22480;SDS011;11407;56.964;-2.212;2023-08-06T11:03:08;5.13;;;2.87;;
22480;SDS011;11407;56.964;-2.212;2023-08-06T11:05:34;4.30;;;2.60;;
22480;SDS011;11407;56.964;-2.212;2023-08-06T11:07:59;3.47;;;2.60;;
22480;SDS011;11407;56.964;-2.212;2023-08-06T11:10:24;2.40;;;2.20;;
22480;SDS011;11407;56.964;-2.212;2023-08-06T11:12:49;2.40;;;2.20;;
22480;SDS011;11407;56.964;-2.212;2023-08-06T11:15:15;3.00;;;2.23;;
22480;SDS011;11407;56.964;-2.212;2023-08-06T11:17:40;2.23;;;1.80;;
22480;SDS011;11407;56.964;-2.212;2023-08-06T11:20:06;3.00;;;2.23;;
22480;SDS011;11407;56.964;-2.212;2023-08-06T11:22:32;2.50;;;1.90;;
22480;SDS011;11407;56.964;-2.212;2023-08-06T11:24:57;3.87;;;2.00;;
22480;SDS011;11407;56.964;-2.212;2023-08-06T11:27:22;4.43;;;1.80;;
22480;SDS011;11407;56.964;-2.212;2023-08-06T11:29:48;3.83;;;2.00;;
22480;SDS011;11407;56.964;-2.212;2023-08-06T11:32:13;3.57;;;2.53;;
22480;SDS011;11407;56.964;-2.212;2023-08-06T11:34:39;3.63;;;2.30;;
22480;SDS011;11407;56.964;-2.212;2023-08-06T11:37:04;3.43;;;2.17;;
22480;SDS011;11407;56.964;-2.212;2023-08-06T11:39:34;3.00;;;2.40;;
22480;SDS011;11407;56.964;-2.212;2023-08-06T11:41:59;2.87;;;2.10;;
22480;SDS011;11407;56.964;-2.212;2023-08-06T11:44:31;3.40;;;2.00;;
22480;SDS011;11407;56.964;-2.212;2023-08-06T11:46:58;4.10;;;1.90;;
22480;SDS011;11407;56.964;-2.212;2023-08-06T11:49:42;3.00;;;2.17;;
22480;SDS011;11407;56.964;-2.212;2023-08-06T11:52:13;2.70;;;1.97;;
22480;SDS011;11407;56.964;-2.212;2023-08-06T11:54:39;2.83;;;1.80;;
22480;SDS011;11407;56.964;-2.212;2023-08-06T11:57:07;4.37;;;1.70;;
22480;SDS011;11407;56.964;-2.212;2023-08-06T11:59:32;2.40;;;1.83;;
22480;SDS011;11407;56.964;-2.212;2023-08-06T12:01:57;4.27;;;1.90;;
22480;SDS011;11407;56.964;-2.212;2023-08-06T12:04:24;2.33;;;1.83;;
22480;SDS011;11407;56.964;-2.212;2023-08-06T12:06:50;2.03;;;1.60;;
22480;SDS011;11407;56.964;-2.212;2023-08-06T12:09:15;2.47;;;1.57;;
22480;SDS011;11407;56.964;-2.212;2023-08-06T12:11:41;3.00;;;2.00;;
22480;SDS011;11407;56.964;-2.212;2023-08-06T12:14:06;2.50;;;1.80;;
22480;SDS011;11407;56.964;-2.212;2023-08-06T12:16:31;2.90;;;2.07;;
22480;SDS011;11407;56.964;-2.212;2023-08-06T12:18:57;3.30;;;1.67;;
22480;SDS011;11407;56.964;-2.212;2023-08-06T12:21:22;2.23;;;1.70;;
22480;SDS011;11407;56.964;-2.212;2023-08-06T12:23:47;1.60;;;1.47;;
22480;SDS011;11407;56.964;-2.212;2023-08-06T12:26:12;1.57;;;1.47;;
22480;SDS011;11407;56.964;-2.212;2023-08-06T12:28:37;2.13;;;1.50;;
22480;SDS011;11407;56.964;-2.212;2023-08-06T12:31:03;2.73;;;1.70;;
22480;SDS011;11407;56.964;-2.212;2023-08-06T12:33:28;2.37;;;1.50;;
22480;SDS011;11407;56.964;-2.212;2023-08-06T12:35:53;1.73;;;1.50;;
22480;SDS011;11407;56.964;-2.212;2023-08-06T12:38:20;2.33;;;1.40;;
22480;SDS011;11407;56.964;-2.212;2023-08-06T12:40:45;1.97;;;1.30;;
22480;SDS011;11407;56.964;-2.212;2023-08-06T12:43:10;2.70;;;1.40;;
22480;SDS011;11407;56.964;-2.212;2023-08-06T12:45:35;2.03;;;1.43;;
22480;SDS011;11407;56.964;-2.212;2023-08-06T12:48:01;2.90;;;1.50;;
22480;SDS011;11407;56.964;-2.212;2023-08-06T12:50:27;2.00;;;1.30;;
22480;SDS011;11407;56.964;-2.212;2023-08-06T12:52:52;2.17;;;1.43;;
22480;SDS011;11407;56.964;-2.212;2023-08-06T12:55:17;1.90;;;1.50;;
22480;SDS011;11407;56.964;-2.212;2023-08-06T12:57:42;1.67;;;1.50;;
22480;SDS011;11407;56.964;-2.212;2023-08-06T13:00:08;3.17;;;1.87;;
22480;SDS011;11407;56.964;-2.212;2023-08-06T13:02:33;3.37;;;1.60;;
22480;SDS011;11407;56.964;-2.212;2023-08-06T13:04:58;3.70;;;1.70;;
22480;SDS011;11407;56.964;-2.212;2023-08-06T13:07:24;2.87;;;1.60;;
22480;SDS011;11407;56.964;-2.212;2023-08-06T13:09:49;3.40;;;1.70;;
22480;SDS011;11407;56.964;-2.212;2023-08-06T13:12:15;2.50;;;1.73;;
22480;SDS011;11407;56.964;-2.212;2023-08-06T13:14:40;3.03;;;1.70;;
22480;SDS011;11407;56.964;-2.212;2023-08-06T13:17:05;2.43;;;1.90;;
22480;SDS011;11407;56.964;-2.212;2023-08-06T13:19:32;2.17;;;1.90;;
22480;SDS011;11407;56.964;-2.212;2023-08-06T13:21:58;5.10;;;2.10;;
22480;SDS011;11407;56.964;-2.212;2023-08-06T13:24:24;2.30;;;1.93;;
22480;SDS011;11407;56.964;-2.212;2023-08-06T13:26:49;3.83;;;2.00;;
22480;SDS011;11407;56.964;-2.212;2023-08-06T13:29:15;2.50;;;1.80;;
22480;SDS011;11407;56.964;-2.212;2023-08-06T13:31:40;2.77;;;1.80;;
22480;SDS011;11407;56.964;-2.212;2023-08-06T13:34:05;2.73;;;2.13;;
22480;SDS011;11407;56.964;-2.212;2023-08-06T13:36:30;3.73;;;2.10;;
22480;SDS011;11407;56.964;-2.212;2023-08-06T13:38:56;2.90;;;2.13;;
22480;SDS011;11407;56.964;-2.212;2023-08-06T13:41:22;4.07;;;2.20;;
22480;SDS011;11407;56.964;-2.212;2023-08-06T13:43:47;2.93;;;2.10;;
22480;SDS011;11407;56.964;-2.212;2023-08-06T13:46:13;2.47;;;2.27;;
22480;SDS011;11407;56.964;-2.212;2023-08-06T13:48:41;2.93;;;2.10;;
22480;SDS011;11407;56.964;-2.212;2023-08-06T13:51:06;2.57;;;2.20;;
22480;SDS011;11407;56.964;-2.212;2023-08-06T13:53:32;3.33;;;2.20;;
22480;SDS011;11407;56.964;-2.212;2023-08-06T13:55:57;4.17;;;2.43;;
22480;SDS011;11407;56.964;-2.212;2023-08-06T13:58:22;3.03;;;2.20;;
22480;SDS011;11407;56.964;-2.212;2023-08-06T14:00:48;3.00;;;2.60;;
22480;SDS011;11407;56.964;-2.212;2023-08-06T14:03:13;3.83;;;2.80;;
22480;SDS011;11407;56.964;-2.212;2023-08-06T14:05:39;5.63;;;2.60;;
22480;SDS011;11407;56.964;-2.212;2023-08-06T14:08:04;3.97;;;2.30;;
22480;SDS011;11407;56.964;-2.212;2023-08-06T14:10:30;3.37;;;2.30;;
22480;SDS011;11407;56.964;-2.212;2023-08-06T14:12:55;3.43;;;2.47;;
22480;SDS011;11407;56.964;-2.212;2023-08-06T14:15:20;3.20;;;2.50;;
22480;SDS011;11407;56.964;-2.212;2023-08-06T14:17:46;3.50;;;2.60;;
22480;SDS011;11407;56.964;-2.212;2023-08-06T14:20:11;4.30;;;2.60;;
22480;SDS011;11407;56.964;-2.212;2023-08-06T14:22:37;3.03;;;2.60;;
22480;SDS011;11407;56.964;-2.212;2023-08-06T14:25:02;4.37;;;2.80;;
22480;SDS011;11407;56.964;-2.212;2023-08-06T14:27:28;4.50;;;2.80;;
22480;SDS011;11407;56.964;-2.212;2023-08-06T14:29:53;6.83;;;3.43;;
22480;SDS011;11407;56.964;-2.212;2023-08-06T14:32:18;4.57;;;2.73;;
22480;SDS011;11407;56.964;-2.212;2023-08-06T14:34:44;5.77;;;2.70;;
22480;SDS011;11407;56.964;-2.212;2023-08-06T14:37:10;4.20;;;2.90;;
22480;SDS011;11407;56.964;-2.212;2023-08-06T14:39:35;3.63;;;2.73;;
22480;SDS011;11407;56.964;-2.212;2023-08-06T14:42:00;5.40;;;3.00;;
22480;SDS011;11407;56.964;-2.212;2023-08-06T14:44:26;4.73;;;2.80;;